KFHRCYWL

Guest
Details From KFHR - FRIDAY HARBOR
To CYWL - WILLIAMS LAKE
Flight Number -
Tags generated
Created
Modified
Stats Distance 223 nm / 414 km
Max Altitude 25,800 ft / 7,864 m
Waypoints 4
Social Downloads 1
Likes 0
Share

Download

Looking for another format? Having issues loading an existing format? Contact us
Advertisement - Login to hide

Notes

Basic altitude profile: - Ascent Rate: 2500ft/min - Ascent Speed: 250kts - Cruise Altitude: 35000ft - Cruise Speed: 420kts - Descent Rate: 1500ft/min - Descent Speed: 250kts Options: - Use NATs: yes - Use PACOTS: yes - Use low airways: yes - Use high airways: yes

Route

KFHR GLACE V349 SEATN CYWL

ID Type Via Altitude (ft/m) Position (lat/lon) Dist (leg/tot) Name
O KFHR APT - 0 / 0 48.52197 / -123.02437 - / 0 nm FRIDAY HARBOR
GLACE FIX - 25,800 / 7,864 50.18961 / -122.43086 102 / 102 nm
SEATN FIX V349 (AWY-LO) 17,000 / 5,182 50.70358 / -122.36725 30 / 133 nm
O CYWL APT - 0 / 0 52.18250 / -122.05348 89 / 223 nm WILLIAMS LAKE

Altitude Profile

Advertisement - Login to hide

Weather


0- 5 10 15 20 25 30 35+ Temperature / °C

Clouds and Precipitation
Forecast for 2020-10-24 12:00 UTC. Updated 5 hours ago

Ground ~20,000 ft ~40,000 ft Winds

KFHR

Details ICAO KFHR (FRD)
Name FRIDAY HARBOR
Region United States
Timezone America/Los_Angeles (UTC-7.0)
Stats Elevation 113 ft / 34 m (AMSL)
Location 48.522000° -123.024000°
Runways 1
Magnetic Variation 15.643° E

METAR

KFHR 241353Z AUTO 02015G24KT 10SM CLR 06/M06 A3020 RMK AO2 PK WND 02036/1255 SLP228 T00561056 TSNO

Decode

TAF

Not found

Departure Runways

ID Width Length Bearing (true/mag) Surface Threshold Overrun Markings Lighting
16 75 ft / 23 m 3,402 ft / 1,037 m 177.06° / 161.41° ASPHALT 0 ft / 0 m 0 ft / 0 m VISUAL EDGE THRESHOLD
34 75 ft / 23 m 3,402 ft / 1,037 m 357.06° / 341.41° ASPHALT 0 ft / 0 m 0 ft / 0 m VISUAL EDGE THRESHOLD REIL-OMNI

CYWL

Details ICAO CYWL (YWL)
Name WILLIAMS LAKE
Region Canada
Timezone America/Vancouver (UTC-7.0)
Stats Elevation 3,085 ft / 940 m (AMSL)
Location 52.182500° -122.053000°
Runways 1
Magnetic Variation 16.298° E

METAR

CYWL 241400Z 26005KT 15SM SCT120 M15/M18 A3037 RMK AC3 SLP356

Decode

TAF

TAF CYWL 241238Z 2413/2501 24012KT P6SM SKC BECMG 2416/2418 28010KT RMK NXT FCST BY 241900Z

Decode

Destination Runways

ID Width Length Bearing (true/mag) Surface Threshold Overrun Markings Lighting
11 150 ft / 46 m 6,913 ft / 2,107 m 134.72° / 118.42° ASPHALT 0 ft / 0 m 300 ft / 91 m APP EDGE THRESHOLD ODALS
29 150 ft / 46 m 6,913 ft / 2,107 m 314.74° / 298.44° ASPHALT 0 ft / 0 m 300 ft / 91 m APP EDGE THRESHOLD ODALS